sensor_id;sensor_type;location;lat;lon;timestamp;P1;durP1;ratioP1;P2;durP2;ratioP2
29382;SDS011;16365;51.598;7.668;2022-07-22T00:00:48;5.28;;;1.85;;
29382;SDS011;16365;51.598;7.668;2022-07-22T00:03:15;1.88;;;1.77;;
29382;SDS011;16365;51.598;7.668;2022-07-22T00:05:41;2.33;;;1.60;;
29382;SDS011;16365;51.598;7.668;2022-07-22T00:08:08;2.58;;;1.85;;
29382;SDS011;16365;51.598;7.668;2022-07-22T00:10:35;2.75;;;1.83;;
29382;SDS011;16365;51.598;7.668;2022-07-22T00:13:01;3.33;;;2.03;;
29382;SDS011;16365;51.598;7.668;2022-07-22T00:15:28;1.83;;;1.73;;
29382;SDS011;16365;51.598;7.668;2022-07-22T00:17:55;3.03;;;2.60;;
29382;SDS011;16365;51.598;7.668;2022-07-22T00:20:21;2.97;;;2.42;;
29382;SDS011;16365;51.598;7.668;2022-07-22T00:22:48;5.03;;;2.97;;
29382;SDS011;16365;51.598;7.668;2022-07-22T00:25:15;2.72;;;2.40;;
29382;SDS011;16365;51.598;7.668;2022-07-22T00:27:41;7.07;;;3.53;;
29382;SDS011;16365;51.598;7.668;2022-07-22T00:30:08;5.78;;;3.17;;
29382;SDS011;16365;51.598;7.668;2022-07-22T00:32:35;7.50;;;3.50;;
29382;SDS011;16365;51.598;7.668;2022-07-22T00:35:02;4.55;;;3.80;;
29382;SDS011;16365;51.598;7.668;2022-07-22T00:37:29;3.60;;;3.25;;
29382;SDS011;16365;51.598;7.668;2022-07-22T00:39:56;3.60;;;3.17;;
29382;SDS011;16365;51.598;7.668;2022-07-22T00:42:23;5.20;;;3.22;;
29382;SDS011;16365;51.598;7.668;2022-07-22T00:44:50;3.40;;;3.10;;
29382;SDS011;16365;51.598;7.668;2022-07-22T00:47:17;6.10;;;3.10;;
29382;SDS011;16365;51.598;7.668;2022-07-22T00:49:43;6.13;;;2.90;;
29382;SDS011;16365;51.598;7.668;2022-07-22T00:52:10;3.22;;;2.55;;
29382;SDS011;16365;51.598;7.668;2022-07-22T00:54:37;4.35;;;2.47;;
29382;SDS011;16365;51.598;7.668;2022-07-22T00:57:04;3.28;;;2.53;;
29382;SDS011;16365;51.598;7.668;2022-07-22T00:59:31;4.82;;;2.60;;
29382;SDS011;16365;51.598;7.668;2022-07-22T01:01:58;2.83;;;2.00;;
29382;SDS011;16365;51.598;7.668;2022-07-22T01:04:25;3.08;;;2.30;;
29382;SDS011;16365;51.598;7.668;2022-07-22T01:06:52;2.78;;;1.92;;
29382;SDS011;16365;51.598;7.668;2022-07-22T01:09:19;2.10;;;1.90;;
29382;SDS011;16365;51.598;7.668;2022-07-22T01:11:45;3.05;;;2.00;;
29382;SDS011;16365;51.598;7.668;2022-07-22T01:14:12;4.10;;;1.98;;
29382;SDS011;16365;51.598;7.668;2022-07-22T01:16:39;2.35;;;2.05;;
29382;SDS011;16365;51.598;7.668;2022-07-22T01:19:10;3.72;;;2.20;;
29382;SDS011;16365;51.598;7.668;2022-07-22T01:21:37;2.88;;;2.38;;
29382;SDS011;16365;51.598;7.668;2022-07-22T01:24:04;4.78;;;2.67;;
29382;SDS011;16365;51.598;7.668;2022-07-22T01:26:31;6.40;;;3.17;;
29382;SDS011;16365;51.598;7.668;2022-07-22T01:28:59;3.70;;;2.88;;
29382;SDS011;16365;51.598;7.668;2022-07-22T01:31:26;4.22;;;3.33;;
29382;SDS011;16365;51.598;7.668;2022-07-22T01:33:54;5.55;;;3.35;;
29382;SDS011;16365;51.598;7.668;2022-07-22T01:36:21;5.00;;;3.03;;
29382;SDS011;16365;51.598;7.668;2022-07-22T01:38:48;4.85;;;2.90;;
29382;SDS011;16365;51.598;7.668;2022-07-22T01:41:14;6.38;;;2.95;;
29382;SDS011;16365;51.598;7.668;2022-07-22T01:43:41;6.55;;;2.50;;
29382;SDS011;16365;51.598;7.668;2022-07-22T01:46:07;4.28;;;3.15;;
29382;SDS011;16365;51.598;7.668;2022-07-22T01:48:34;4.60;;;2.38;;
29382;SDS011;16365;51.598;7.668;2022-07-22T01:51:01;3.38;;;2.70;;
29382;SDS011;16365;51.598;7.668;2022-07-22T01:53:27;4.38;;;2.70;;
29382;SDS011;16365;51.598;7.668;2022-07-22T01:55:54;4.50;;;2.17;;
29382;SDS011;16365;51.598;7.668;2022-07-22T01:58:21;3.40;;;2.20;;
29382;SDS011;16365;51.598;7.668;2022-07-22T02:00:48;3.95;;;2.38;;
29382;SDS011;16365;51.598;7.668;2022-07-22T02:03:15;3.17;;;2.58;;
29382;SDS011;16365;51.598;7.668;2022-07-22T02:05:41;4.35;;;2.20;;
29382;SDS011;16365;51.598;7.668;2022-07-22T02:08:08;4.18;;;2.63;;
29382;SDS011;16365;51.598;7.668;2022-07-22T02:10:36;3.63;;;2.15;;
29382;SDS011;16365;51.598;7.668;2022-07-22T02:13:04;2.63;;;2.13;;
29382;SDS011;16365;51.598;7.668;2022-07-22T02:15:33;3.22;;;2.33;;
29382;SDS011;16365;51.598;7.668;2022-07-22T02:18:00;3.85;;;2.22;;
29382;SDS011;16365;51.598;7.668;2022-07-22T02:20:27;4.13;;;2.08;;
29382;SDS011;16365;51.598;7.668;2022-07-22T02:22:53;4.00;;;2.13;;
29382;SDS011;16365;51.598;7.668;2022-07-22T02:25:20;4.80;;;2.33;;
29382;SDS011;16365;51.598;7.668;2022-07-22T02:27:46;5.03;;;2.60;;
29382;SDS011;16365;51.598;7.668;2022-07-22T02:30:13;4.53;;;2.63;;
29382;SDS011;16365;51.598;7.668;2022-07-22T02:32:40;7.55;;;2.45;;
29382;SDS011;16365;51.598;7.668;2022-07-22T02:35:06;6.43;;;3.10;;
29382;SDS011;16365;51.598;7.668;2022-07-22T02:37:33;6.15;;;2.60;;
29382;SDS011;16365;51.598;7.668;2022-07-22T02:40:00;6.65;;;2.33;;
29382;SDS011;16365;51.598;7.668;2022-07-22T02:42:27;4.68;;;1.90;;
29382;SDS011;16365;51.598;7.668;2022-07-22T02:44:53;6.85;;;2.55;;
29382;SDS011;16365;51.598;7.668;2022-07-22T02:47:20;5.70;;;2.42;;
29382;SDS011;16365;51.598;7.668;2022-07-22T02:49:47;4.45;;;2.60;;
29382;SDS011;16365;51.598;7.668;2022-07-22T02:52:13;6.15;;;2.90;;
29382;SDS011;16365;51.598;7.668;2022-07-22T02:54:40;12.20;;;3.00;;
29382;SDS011;16365;51.598;7.668;2022-07-22T02:57:06;4.40;;;2.35;;
29382;SDS011;16365;51.598;7.668;2022-07-22T02:59:33;4.78;;;2.70;;
29382;SDS011;16365;51.598;7.668;2022-07-22T03:01:59;6.70;;;2.42;;
29382;SDS011;16365;51.598;7.668;2022-07-22T03:04:26;6.10;;;2.58;;
29382;SDS011;16365;51.598;7.668;2022-07-22T03:06:52;7.72;;;2.80;;
29382;SDS011;16365;51.598;7.668;2022-07-22T03:09:19;3.95;;;2.45;;
29382;SDS011;16365;51.598;7.668;2022-07-22T03:11:45;5.68;;;2.30;;
29382;SDS011;16365;51.598;7.668;2022-07-22T03:14:13;6.47;;;2.55;;
29382;SDS011;16365;51.598;7.668;2022-07-22T03:16:39;5.15;;;2.80;;
29382;SDS011;16365;51.598;7.668;2022-07-22T03:19:06;5.82;;;2.55;;
29382;SDS011;16365;51.598;7.668;2022-07-22T03:21:32;9.02;;;2.90;;
29382;SDS011;16365;51.598;7.668;2022-07-22T03:23:59;6.82;;;3.33;;
29382;SDS011;16365;51.598;7.668;2022-07-22T03:26:26;4.90;;;3.03;;
29382;SDS011;16365;51.598;7.668;2022-07-22T03:28:53;5.57;;;2.88;;
29382;SDS011;16365;51.598;7.668;2022-07-22T03:31:20;6.65;;;3.10;;
29382;SDS011;16365;51.598;7.668;2022-07-22T03:33:47;6.72;;;3.05;;
29382;SDS011;16365;51.598;7.668;2022-07-22T03:36:13;8.90;;;3.30;;
29382;SDS011;16365;51.598;7.668;2022-07-22T03:38:40;10.73;;;3.13;;
29382;SDS011;16365;51.598;7.668;2022-07-22T03:41:06;5.00;;;2.92;;
29382;SDS011;16365;51.598;7.668;2022-07-22T03:43:33;11.27;;;3.65;;
29382;SDS011;16365;51.598;7.668;2022-07-22T03:46:00;9.38;;;3.35;;
29382;SDS011;16365;51.598;7.668;2022-07-22T03:48:26;7.88;;;3.03;;
29382;SDS011;16365;51.598;7.668;2022-07-22T03:50:53;4.80;;;2.80;;
29382;SDS011;16365;51.598;7.668;2022-07-22T03:53:20;4.72;;;2.92;;
29382;SDS011;16365;51.598;7.668;2022-07-22T03:55:47;6.30;;;3.13;;
29382;SDS011;16365;51.598;7.668;2022-07-22T03:58:15;5.70;;;3.00;;
29382;SDS011;16365;51.598;7.668;2022-07-22T04:00:44;8.40;;;3.30;;
29382;SDS011;16365;51.598;7.668;2022-07-22T04:03:10;6.53;;;3.00;;
29382;SDS011;16365;51.598;7.668;2022-07-22T04:05:37;9.60;;;3.47;;
29382;SDS011;16365;51.598;7.668;2022-07-22T04:08:04;9.35;;;2.95;;
29382;SDS011;16365;51.598;7.668;2022-07-22T04:10:30;6.20;;;3.28;;
29382;SDS011;16365;51.598;7.668;2022-07-22T04:12:57;6.45;;;3.05;;
29382;SDS011;16365;51.598;7.668;2022-07-22T04:15:24;8.73;;;3.15;;
29382;SDS011;16365;51.598;7.668;2022-07-22T04:17:51;9.88;;;3.00;;
29382;SDS011;16365;51.598;7.668;2022-07-22T04:20:17;5.75;;;2.92;;
29382;SDS011;16365;51.598;7.668;2022-07-22T04:22:44;10.60;;;3.40;;
29382;SDS011;16365;51.598;7.668;2022-07-22T04:25:10;7.03;;;3.58;;
29382;SDS011;16365;51.598;7.668;2022-07-22T04:27:37;9.75;;;3.25;;
29382;SDS011;16365;51.598;7.668;2022-07-22T04:30:04;12.57;;;3.08;;
29382;SDS011;16365;51.598;7.668;2022-07-22T04:32:31;11.60;;;3.80;;
29382;SDS011;16365;51.598;7.668;2022-07-22T04:34:57;9.95;;;3.08;;
29382;SDS011;16365;51.598;7.668;2022-07-22T04:37:24;10.32;;;3.50;;
29382;SDS011;16365;51.598;7.668;2022-07-22T04:39:50;10.02;;;3.45;;
29382;SDS011;16365;51.598;7.668;2022-07-22T04:42:17;5.15;;;2.63;;
29382;SDS011;16365;51.598;7.668;2022-07-22T04:44:44;7.85;;;3.10;;
29382;SDS011;16365;51.598;7.668;2022-07-22T04:47:11;11.85;;;3.33;;
29382;SDS011;16365;51.598;7.668;2022-07-22T04:49:39;8.07;;;2.85;;
29382;SDS011;16365;51.598;7.668;2022-07-22T04:52:05;9.07;;;3.58;;
29382;SDS011;16365;51.598;7.668;2022-07-22T04:54:34;9.07;;;3.75;;
29382;SDS011;16365;51.598;7.668;2022-07-22T04:57:02;11.18;;;3.17;;
29382;SDS011;16365;51.598;7.668;2022-07-22T04:59:29;8.70;;;3.20;;
29382;SDS011;16365;51.598;7.668;2022-07-22T05:01:55;8.30;;;3.17;;
29382;SDS011;16365;51.598;7.668;2022-07-22T05:04:22;13.63;;;3.80;;
29382;SDS011;16365;51.598;7.668;2022-07-22T05:06:48;9.32;;;3.22;;
29382;SDS011;16365;51.598;7.668;2022-07-22T05:09:15;8.70;;;3.17;;
29382;SDS011;16365;51.598;7.668;2022-07-22T05:11:42;7.30;;;2.92;;
29382;SDS011;16365;51.598;7.668;2022-07-22T05:14:08;8.60;;;3.83;;
29382;SDS011;16365;51.598;7.668;2022-07-22T05:16:35;10.70;;;3.65;;
29382;SDS011;16365;51.598;7.668;2022-07-22T05:19:05;11.40;;;3.78;;
29382;SDS011;16365;51.598;7.668;2022-07-22T05:21:32;10.07;;;3.90;;
29382;SDS011;16365;51.598;7.668;2022-07-22T05:23:59;11.50;;;3.70;;
29382;SDS011;16365;51.598;7.668;2022-07-22T05:26:26;7.80;;;3.53;;
29382;SDS011;16365;51.598;7.668;2022-07-22T05:28:55;12.73;;;4.43;;
29382;SDS011;16365;51.598;7.668;2022-07-22T05:31:22;9.25;;;3.78;;
29382;SDS011;16365;51.598;7.668;2022-07-22T05:33:49;12.32;;;4.28;;
29382;SDS011;16365;51.598;7.668;2022-07-22T05:36:16;10.25;;;3.70;;
29382;SDS011;16365;51.598;7.668;2022-07-22T05:38:43;11.80;;;4.30;;
29382;SDS011;16365;51.598;7.668;2022-07-22T05:41:09;11.15;;;4.63;;
29382;SDS011;16365;51.598;7.668;2022-07-22T05:43:36;14.73;;;4.80;;
29382;SDS011;16365;51.598;7.668;2022-07-22T05:46:02;9.48;;;4.07;;
29382;SDS011;16365;51.598;7.668;2022-07-22T05:48:29;12.65;;;4.28;;
29382;SDS011;16365;51.598;7.668;2022-07-22T05:50:56;12.05;;;4.72;;
29382;SDS011;16365;51.598;7.668;2022-07-22T05:53:22;6.32;;;2.63;;
29382;SDS011;16365;51.598;7.668;2022-07-22T05:55:49;7.95;;;2.25;;
29382;SDS011;16365;51.598;7.668;2022-07-22T05:58:16;8.65;;;2.08;;
29382;SDS011;16365;51.598;7.668;2022-07-22T06:00:42;6.00;;;2.22;;
29382;SDS011;16365;51.598;7.668;2022-07-22T06:03:09;11.88;;;2.78;;
29382;SDS011;16365;51.598;7.668;2022-07-22T06:05:43;10.70;;;2.72;;
29382;SDS011;16365;51.598;7.668;2022-07-22T06:08:10;4.05;;;2.30;;
29382;SDS011;16365;51.598;7.668;2022-07-22T06:10:36;15.85;;;2.33;;
29382;SDS011;16365;51.598;7.668;2022-07-22T06:13:03;8.38;;;2.50;;
29382;SDS011;16365;51.598;7.668;2022-07-22T06:15:29;9.13;;;2.67;;
29382;SDS011;16365;51.598;7.668;2022-07-22T06:17:56;8.90;;;2.35;;
29382;SDS011;16365;51.598;7.668;2022-07-22T06:20:22;7.93;;;2.30;;
29382;SDS011;16365;51.598;7.668;2022-07-22T06:22:49;9.05;;;2.67;;
29382;SDS011;16365;51.598;7.668;2022-07-22T06:25:15;13.55;;;2.80;;
29382;SDS011;16365;51.598;7.668;2022-07-22T06:28:02;6.20;;;2.63;;
29382;SDS011;16365;51.598;7.668;2022-07-22T06:30:29;9.73;;;3.20;;
29382;SDS011;16365;51.598;7.668;2022-07-22T06:32:55;8.90;;;3.55;;
29382;SDS011;16365;51.598;7.668;2022-07-22T06:35:22;8.15;;;2.60;;
29382;SDS011;16365;51.598;7.668;2022-07-22T06:37:51;7.72;;;2.33;;
29382;SDS011;16365;51.598;7.668;2022-07-22T06:40:30;10.05;;;2.72;;
29382;SDS011;16365;51.598;7.668;2022-07-22T06:42:57;7.38;;;2.22;;
29382;SDS011;16365;51.598;7.668;2022-07-22T06:45:24;12.02;;;2.28;;
29382;SDS011;16365;51.598;7.668;2022-07-22T06:47:50;7.97;;;2.08;;
29382;SDS011;16365;51.598;7.668;2022-07-22T06:50:17;12.48;;;2.65;;
29382;SDS011;16365;51.598;7.668;2022-07-22T06:52:43;5.50;;;2.03;;
29382;SDS011;16365;51.598;7.668;2022-07-22T06:55:10;8.23;;;2.45;;
29382;SDS011;16365;51.598;7.668;2022-07-22T06:57:37;6.47;;;2.17;;
29382;SDS011;16365;51.598;7.668;2022-07-22T07:00:04;14.65;;;2.63;;
29382;SDS011;16365;51.598;7.668;2022-07-22T07:02:33;7.22;;;2.38;;
29382;SDS011;16365;51.598;7.668;2022-07-22T07:05:00;9.70;;;2.50;;
29382;SDS011;16365;51.598;7.668;2022-07-22T07:07:27;7.38;;;2.60;;
29382;SDS011;16365;51.598;7.668;2022-07-22T07:09:53;9.13;;;3.05;;
29382;SDS011;16365;51.598;7.668;2022-07-22T07:12:20;7.60;;;2.67;;
29382;SDS011;16365;51.598;7.668;2022-07-22T07:14:47;9.10;;;2.97;;
29382;SDS011;16365;51.598;7.668;2022-07-22T07:17:34;8.18;;;2.47;;
29382;SDS011;16365;51.598;7.668;2022-07-22T07:20:01;9.48;;;2.90;;
29382;SDS011;16365;51.598;7.668;2022-07-22T07:22:28;12.55;;;2.78;;
29382;SDS011;16365;51.598;7.668;2022-07-22T07:24:54;8.63;;;3.00;;
29382;SDS011;16365;51.598;7.668;2022-07-22T07:29:50;9.10;;;2.30;;
29382;SDS011;16365;51.598;7.668;2022-07-22T07:32:17;10.38;;;2.42;;
29382;SDS011;16365;51.598;7.668;2022-07-22T07:34:43;6.65;;;2.50;;
29382;SDS011;16365;51.598;7.668;2022-07-22T07:37:10;12.85;;;3.00;;
29382;SDS011;16365;51.598;7.668;2022-07-22T07:39:37;8.27;;;2.70;;
29382;SDS011;16365;51.598;7.668;2022-07-22T07:42:05;6.03;;;2.60;;
29382;SDS011;16365;51.598;7.668;2022-07-22T07:44:31;9.40;;;2.55;;
29382;SDS011;16365;51.598;7.668;2022-07-22T07:46:58;7.80;;;2.30;;
29382;SDS011;16365;51.598;7.668;2022-07-22T07:49:25;8.70;;;2.60;;
29382;SDS011;16365;51.598;7.668;2022-07-22T07:51:51;7.78;;;2.83;;
29382;SDS011;16365;51.598;7.668;2022-07-22T07:54:21;7.90;;;2.45;;
29382;SDS011;16365;51.598;7.668;2022-07-22T07:56:48;9.48;;;3.05;;
29382;SDS011;16365;51.598;7.668;2022-07-22T07:59:17;6.75;;;2.80;;
29382;SDS011;16365;51.598;7.668;2022-07-22T08:01:54;5.22;;;2.30;;
29382;SDS011;16365;51.598;7.668;2022-07-22T08:04:25;7.55;;;2.53;;
29382;SDS011;16365;51.598;7.668;2022-07-22T08:07:04;4.63;;;2.40;;
29382;SDS011;16365;51.598;7.668;2022-07-22T08:09:32;7.32;;;2.58;;
29382;SDS011;16365;51.598;7.668;2022-07-22T08:12:01;5.63;;;1.95;;
29382;SDS011;16365;51.598;7.668;2022-07-22T08:14:30;5.97;;;2.00;;
29382;SDS011;16365;51.598;7.668;2022-07-22T08:16:56;6.10;;;2.00;;
29382;SDS011;16365;51.598;7.668;2022-07-22T08:19:24;6.22;;;2.00;;
29382;SDS011;16365;51.598;7.668;2022-07-22T08:21:51;6.93;;;2.53;;
29382;SDS011;16365;51.598;7.668;2022-07-22T08:24:17;7.30;;;2.60;;
29382;SDS011;16365;51.598;7.668;2022-07-22T08:26:44;5.53;;;2.50;;
29382;SDS011;16365;51.598;7.668;2022-07-22T08:29:10;7.25;;;2.70;;
29382;SDS011;16365;51.598;7.668;2022-07-22T08:31:37;7.15;;;2.28;;
29382;SDS011;16365;51.598;7.668;2022-07-22T08:34:04;6.25;;;2.13;;
29382;SDS011;16365;51.598;7.668;2022-07-22T08:36:31;5.85;;;2.20;;
29382;SDS011;16365;51.598;7.668;2022-07-22T08:38:58;8.13;;;2.38;;
29382;SDS011;16365;51.598;7.668;2022-07-22T08:41:26;6.82;;;2.40;;
29382;SDS011;16365;51.598;7.668;2022-07-22T08:43:53;7.22;;;2.40;;
29382;SDS011;16365;51.598;7.668;2022-07-22T08:46:20;8.10;;;3.67;;
29382;SDS011;16365;51.598;7.668;2022-07-22T08:48:47;13.70;;;5.55;;
29382;SDS011;16365;51.598;7.668;2022-07-22T08:51:15;10.77;;;4.53;;
29382;SDS011;16365;51.598;7.668;2022-07-22T08:53:41;12.85;;;4.03;;
29382;SDS011;16365;51.598;7.668;2022-07-22T08:56:08;9.52;;;4.07;;
29382;SDS011;16365;51.598;7.668;2022-07-22T08:58:39;10.40;;;4.30;;
29382;SDS011;16365;51.598;7.668;2022-07-22T09:01:07;9.48;;;4.30;;
29382;SDS011;16365;51.598;7.668;2022-07-22T09:03:46;8.60;;;4.45;;
29382;SDS011;16365;51.598;7.668;2022-07-22T09:06:21;12.23;;;5.50;;
29382;SDS011;16365;51.598;7.668;2022-07-22T09:08:54;8.65;;;5.57;;
29382;SDS011;16365;51.598;7.668;2022-07-22T09:11:26;10.35;;;5.20;;
29382;SDS011;16365;51.598;7.668;2022-07-22T09:13:55;14.38;;;6.18;;
29382;SDS011;16365;51.598;7.668;2022-07-22T09:16:42;16.80;;;6.45;;
29382;SDS011;16365;51.598;7.668;2022-07-22T09:19:11;10.73;;;5.80;;
29382;SDS011;16365;51.598;7.668;2022-07-22T09:21:40;14.73;;;7.22;;
29382;SDS011;16365;51.598;7.668;2022-07-22T09:24:25;24.70;;;12.02;;
29382;SDS011;16365;51.598;7.668;2022-07-22T09:27:00;23.83;;;13.05;;
29382;SDS011;16365;51.598;7.668;2022-07-22T09:29:28;31.10;;;15.63;;
29382;SDS011;16365;51.598;7.668;2022-07-22T09:32:03;32.80;;;18.05;;
29382;SDS011;16365;51.598;7.668;2022-07-22T09:34:31;31.45;;;18.35;;
29382;SDS011;16365;51.598;7.668;2022-07-22T09:37:00;28.67;;;17.05;;
29382;SDS011;16365;51.598;7.668;2022-07-22T09:39:28;26.48;;;15.63;;
29382;SDS011;16365;51.598;7.668;2022-07-22T09:44:27;23.83;;;14.40;;
29382;SDS011;16365;51.598;7.668;2022-07-22T09:46:53;28.70;;;17.08;;
29382;SDS011;16365;51.598;7.668;2022-07-22T09:49:33;20.73;;;12.07;;
29382;SDS011;16365;51.598;7.668;2022-07-22T09:52:02;16.73;;;9.20;;
29382;SDS011;16365;51.598;7.668;2022-07-22T09:54:29;10.18;;;5.50;;
29382;SDS011;16365;51.598;7.668;2022-07-22T09:56:56;7.03;;;3.53;;
29382;SDS011;16365;51.598;7.668;2022-07-22T09:59:23;8.48;;;3.03;;
29382;SDS011;16365;51.598;7.668;2022-07-22T10:01:50;5.80;;;3.00;;
29382;SDS011;16365;51.598;7.668;2022-07-22T10:04:20;10.60;;;2.45;;
29382;SDS011;16365;51.598;7.668;2022-07-22T10:06:50;6.65;;;2.63;;
29382;SDS011;16365;51.598;7.668;2022-07-22T10:09:19;6.47;;;2.88;;
29382;SDS011;16365;51.598;7.668;2022-07-22T10:11:47;6.50;;;2.75;;
29382;SDS011;16365;51.598;7.668;2022-07-22T10:14:16;6.93;;;2.92;;
29382;SDS011;16365;51.598;7.668;2022-07-22T10:16:47;7.70;;;2.42;;
29382;SDS011;16365;51.598;7.668;2022-07-22T10:19:14;6.18;;;3.58;;
29382;SDS011;16365;51.598;7.668;2022-07-22T10:21:41;6.22;;;3.38;;
29382;SDS011;16365;51.598;7.668;2022-07-22T10:24:10;7.27;;;3.57;;
29382;SDS011;16365;51.598;7.668;2022-07-22T10:26:50;8.32;;;4.55;;
29382;SDS011;16365;51.598;7.668;2022-07-22T10:32:21;9.70;;;4.10;;
29382;SDS011;16365;51.598;7.668;2022-07-22T10:35:35;8.60;;;3.53;;
29382;SDS011;16365;51.598;7.668;2022-07-22T10:45:28;6.97;;;3.58;;
29382;SDS011;16365;51.598;7.668;2022-07-22T10:48:15;6.25;;;3.20;;
29382;SDS011;16365;51.598;7.668;2022-07-22T10:50:45;4.15;;;3.00;;
29382;SDS011;16365;51.598;7.668;2022-07-22T10:53:15;7.15;;;3.53;;
29382;SDS011;16365;51.598;7.668;2022-07-22T10:56:03;6.60;;;3.25;;
29382;SDS011;16365;51.598;7.668;2022-07-22T10:58:54;5.57;;;3.17;;
29382;SDS011;16365;51.598;7.668;2022-07-22T11:01:29;16.40;;;4.35;;
29382;SDS011;16365;51.598;7.668;2022-07-22T11:04:08;9.68;;;4.53;;
29382;SDS011;16365;51.598;7.668;2022-07-22T11:06:43;9.70;;;4.50;;
29382;SDS011;16365;51.598;7.668;2022-07-22T11:09:12;12.65;;;6.50;;
29382;SDS011;16365;51.598;7.668;2022-07-22T11:11:47;14.05;;;7.57;;
29382;SDS011;16365;51.598;7.668;2022-07-22T11:14:32;11.32;;;8.15;;
29382;SDS011;16365;51.598;7.668;2022-07-22T11:17:08;11.95;;;7.78;;
29382;SDS011;16365;51.598;7.668;2022-07-22T11:19:37;14.25;;;8.85;;
29382;SDS011;16365;51.598;7.668;2022-07-22T11:22:06;18.77;;;9.73;;
29382;SDS011;16365;51.598;7.668;2022-07-22T11:24:35;16.35;;;8.93;;
29382;SDS011;16365;51.598;7.668;2022-07-22T11:27:02;17.45;;;9.60;;
29382;SDS011;16365;51.598;7.668;2022-07-22T11:32:04;20.88;;;9.57;;
29382;SDS011;16365;51.598;7.668;2022-07-22T11:34:32;18.27;;;9.05;;
29382;SDS011;16365;51.598;7.668;2022-07-22T11:36:59;16.08;;;9.60;;
29382;SDS011;16365;51.598;7.668;2022-07-22T11:39:27;12.25;;;8.32;;
29382;SDS011;16365;51.598;7.668;2022-07-22T11:41:56;15.73;;;8.48;;
29382;SDS011;16365;51.598;7.668;2022-07-22T11:44:25;13.73;;;8.93;;
29382;SDS011;16365;51.598;7.668;2022-07-22T11:46:53;16.17;;;8.85;;
29382;SDS011;16365;51.598;7.668;2022-07-22T11:49:25;14.60;;;8.48;;
29382;SDS011;16365;51.598;7.668;2022-07-22T11:51:53;15.07;;;8.80;;
29382;SDS011;16365;51.598;7.668;2022-07-22T11:54:20;13.73;;;8.15;;
29382;SDS011;16365;51.598;7.668;2022-07-22T11:56:47;13.02;;;8.25;;
29382;SDS011;16365;51.598;7.668;2022-07-22T11:59:20;14.02;;;8.52;;
29382;SDS011;16365;51.598;7.668;2022-07-22T12:01:49;16.55;;;8.43;;
29382;SDS011;16365;51.598;7.668;2022-07-22T12:04:17;16.95;;;8.60;;
29382;SDS011;16365;51.598;7.668;2022-07-22T12:06:46;18.80;;;9.43;;
29382;SDS011;16365;51.598;7.668;2022-07-22T12:09:16;14.70;;;8.77;;
29382;SDS011;16365;51.598;7.668;2022-07-22T12:11:49;18.73;;;8.85;;
29382;SDS011;16365;51.598;7.668;2022-07-22T12:14:18;15.80;;;8.98;;
29382;SDS011;16365;51.598;7.668;2022-07-22T12:17:05;15.18;;;8.63;;
29382;SDS011;16365;51.598;7.668;2022-07-22T12:19:34;14.07;;;9.30;;
29382;SDS011;16365;51.598;7.668;2022-07-22T12:24:35;15.02;;;9.00;;
29382;SDS011;16365;51.598;7.668;2022-07-22T12:27:05;15.55;;;9.75;;
29382;SDS011;16365;51.598;7.668;2022-07-22T12:37:21;20.00;;;10.95;;
29382;SDS011;16365;51.598;7.668;2022-07-22T12:42:18;19.45;;;10.23;;
29382;SDS011;16365;51.598;7.668;2022-07-22T12:44:51;24.08;;;12.50;;
29382;SDS011;16365;51.598;7.668;2022-07-22T12:47:37;19.80;;;11.90;;
29382;SDS011;16365;51.598;7.668;2022-07-22T12:52:46;19.70;;;12.55;;
29382;SDS011;16365;51.598;7.668;2022-07-22T12:55:41;17.77;;;12.52;;
29382;SDS011;16365;51.598;7.668;2022-07-22T12:58:10;23.42;;;13.55;;
29382;SDS011;16365;51.598;7.668;2022-07-22T13:00:38;22.80;;;13.90;;
29382;SDS011;16365;51.598;7.668;2022-07-22T13:03:09;24.85;;;15.73;;
29382;SDS011;16365;51.598;7.668;2022-07-22T13:05:36;26.48;;;15.23;;
29382;SDS011;16365;51.598;7.668;2022-07-22T13:08:03;29.10;;;16.63;;
29382;SDS011;16365;51.598;7.668;2022-07-22T13:10:34;23.83;;;15.32;;
29382;SDS011;16365;51.598;7.668;2022-07-22T13:13:01;23.25;;;14.82;;
29382;SDS011;16365;51.598;7.668;2022-07-22T13:15:28;23.08;;;14.23;;
29382;SDS011;16365;51.598;7.668;2022-07-22T13:17:55;20.90;;;13.80;;
29382;SDS011;16365;51.598;7.668;2022-07-22T13:20:22;18.55;;;12.15;;
29382;SDS011;16365;51.598;7.668;2022-07-22T13:22:49;18.23;;;11.07;;
29382;SDS011;16365;51.598;7.668;2022-07-22T13:25:16;21.75;;;10.65;;
29382;SDS011;16365;51.598;7.668;2022-07-22T13:27:43;21.13;;;10.52;;
29382;SDS011;16365;51.598;7.668;2022-07-22T13:30:10;18.75;;;9.50;;
29382;SDS011;16365;51.598;7.668;2022-07-22T13:32:38;13.25;;;7.88;;
29382;SDS011;16365;51.598;7.668;2022-07-22T13:35:14;16.00;;;8.70;;
29382;SDS011;16365;51.598;7.668;2022-07-22T13:37:42;14.32;;;8.63;;
29382;SDS011;16365;51.598;7.668;2022-07-22T13:40:13;15.38;;;8.70;;
29382;SDS011;16365;51.598;7.668;2022-07-22T13:42:40;16.08;;;9.90;;
29382;SDS011;16365;51.598;7.668;2022-07-22T13:45:06;22.50;;;12.30;;
29382;SDS011;16365;51.598;7.668;2022-07-22T13:47:36;18.90;;;11.93;;
29382;SDS011;16365;51.598;7.668;2022-07-22T13:50:03;19.40;;;10.50;;
29382;SDS011;16365;51.598;7.668;2022-07-22T13:52:31;18.92;;;11.82;;
29382;SDS011;16365;51.598;7.668;2022-07-22T13:54:57;19.35;;;12.20;;
29382;SDS011;16365;51.598;7.668;2022-07-22T13:57:24;18.83;;;12.50;;
29382;SDS011;16365;51.598;7.668;2022-07-22T13:59:50;22.05;;;13.73;;
29382;SDS011;16365;51.598;7.668;2022-07-22T14:02:17;23.88;;;16.10;;
29382;SDS011;16365;51.598;7.668;2022-07-22T14:04:44;23.45;;;16.60;;
29382;SDS011;16365;51.598;7.668;2022-07-22T14:07:12;26.23;;;16.08;;
29382;SDS011;16365;51.598;7.668;2022-07-22T14:09:38;24.05;;;16.70;;
29382;SDS011;16365;51.598;7.668;2022-07-22T14:12:05;26.42;;;17.05;;
29382;SDS011;16365;51.598;7.668;2022-07-22T14:14:32;23.02;;;14.95;;
29382;SDS011;16365;51.598;7.668;2022-07-22T14:16:59;28.00;;;15.05;;
29382;SDS011;16365;51.598;7.668;2022-07-22T14:19:28;21.67;;;13.77;;
29382;SDS011;16365;51.598;7.668;2022-07-22T14:21:54;19.40;;;13.40;;
29382;SDS011;16365;51.598;7.668;2022-07-22T14:24:24;25.23;;;15.43;;
29382;SDS011;16365;51.598;7.668;2022-07-22T14:26:52;21.95;;;14.68;;
29382;SDS011;16365;51.598;7.668;2022-07-22T14:29:19;23.73;;;14.77;;
29382;SDS011;16365;51.598;7.668;2022-07-22T14:31:48;21.75;;;14.57;;
29382;SDS011;16365;51.598;7.668;2022-07-22T14:34:15;24.25;;;15.32;;
29382;SDS011;16365;51.598;7.668;2022-07-22T14:36:44;26.60;;;14.20;;
29382;SDS011;16365;51.598;7.668;2022-07-22T14:39:11;22.67;;;13.90;;
29382;SDS011;16365;51.598;7.668;2022-07-22T14:41:37;21.63;;;13.10;;
29382;SDS011;16365;51.598;7.668;2022-07-22T14:44:04;21.88;;;13.68;;
29382;SDS011;16365;51.598;7.668;2022-07-22T14:46:30;21.40;;;13.07;;
29382;SDS011;16365;51.598;7.668;2022-07-22T14:48:58;21.00;;;13.88;;
29382;SDS011;16365;51.598;7.668;2022-07-22T14:51:25;19.50;;;12.52;;
29382;SDS011;16365;51.598;7.668;2022-07-22T14:53:51;21.38;;;13.68;;
29382;SDS011;16365;51.598;7.668;2022-07-22T14:56:18;19.92;;;12.25;;
29382;SDS011;16365;51.598;7.668;2022-07-22T14:58:44;21.55;;;14.00;;
29382;SDS011;16365;51.598;7.668;2022-07-22T15:01:11;19.52;;;13.85;;
29382;SDS011;16365;51.598;7.668;2022-07-22T15:03:39;22.45;;;13.98;;
29382;SDS011;16365;51.598;7.668;2022-07-22T15:06:06;21.55;;;13.98;;
29382;SDS011;16365;51.598;7.668;2022-07-22T15:08:33;25.92;;;13.15;;
29382;SDS011;16365;51.598;7.668;2022-07-22T15:10:59;22.17;;;13.77;;
29382;SDS011;16365;51.598;7.668;2022-07-22T15:13:27;20.58;;;13.10;;
29382;SDS011;16365;51.598;7.668;2022-07-22T15:18:22;21.35;;;12.88;;
29382;SDS011;16365;51.598;7.668;2022-07-22T15:20:49;22.25;;;13.98;;
29382;SDS011;16365;51.598;7.668;2022-07-22T15:23:16;20.75;;;13.48;;